sensor_id;sensor_type;location;lat;lon;timestamp;temperature;humidity
55036;DHT22;40936;53.008;6.556;2023-06-14T00:01:46;17.40;99.90
55036;DHT22;40936;53.008;6.556;2023-06-14T00:04:13;17.30;99.90
55036;DHT22;40936;53.008;6.556;2023-06-14T00:06:39;17.30;99.90
55036;DHT22;40936;53.008;6.556;2023-06-14T00:09:05;17.20;99.90
55036;DHT22;40936;53.008;6.556;2023-06-14T00:11:31;17.20;99.90
55036;DHT22;40936;53.008;6.556;2023-06-14T00:13:57;17.10;99.90
55036;DHT22;40936;53.008;6.556;2023-06-14T00:16:23;17.10;99.90
55036;DHT22;40936;53.008;6.556;2023-06-14T00:18:50;17.00;99.90
55036;DHT22;40936;53.008;6.556;2023-06-14T00:21:17;17.00;99.90
55036;DHT22;40936;53.008;6.556;2023-06-14T00:23:43;17.00;99.90
55036;DHT22;40936;53.008;6.556;2023-06-14T00:26:09;16.90;99.90
55036;DHT22;40936;53.008;6.556;2023-06-14T00:28:34;16.90;99.90
55036;DHT22;40936;53.008;6.556;2023-06-14T00:31:00;16.90;99.90
55036;DHT22;40936;53.008;6.556;2023-06-14T00:33:26;16.90;99.90
55036;DHT22;40936;53.008;6.556;2023-06-14T00:35:51;16.90;99.90
55036;DHT22;40936;53.008;6.556;2023-06-14T00:38:20;16.90;99.90
55036;DHT22;40936;53.008;6.556;2023-06-14T00:40:46;16.80;99.90
55036;DHT22;40936;53.008;6.556;2023-06-14T00:43:12;16.80;99.90
55036;DHT22;40936;53.008;6.556;2023-06-14T00:45:38;16.80;99.90
55036;DHT22;40936;53.008;6.556;2023-06-14T00:48:04;16.70;99.90
55036;DHT22;40936;53.008;6.556;2023-06-14T00:50:31;16.70;99.90
55036;DHT22;40936;53.008;6.556;2023-06-14T00:52:59;16.60;99.90
55036;DHT22;40936;53.008;6.556;2023-06-14T00:55:26;16.60;99.90
55036;DHT22;40936;53.008;6.556;2023-06-14T00:57:53;16.60;99.90
55036;DHT22;40936;53.008;6.556;2023-06-14T01:00:19;16.60;99.90
55036;DHT22;40936;53.008;6.556;2023-06-14T01:02:45;16.60;99.90
55036;DHT22;40936;53.008;6.556;2023-06-14T01:05:12;16.50;99.90
55036;DHT22;40936;53.008;6.556;2023-06-14T01:10:35;16.40;99.90
55036;DHT22;40936;53.008;6.556;2023-06-14T01:13:19;16.40;99.90
55036;DHT22;40936;53.008;6.556;2023-06-14T01:15:47;16.40;99.90
55036;DHT22;40936;53.008;6.556;2023-06-14T01:18:12;16.30;99.90
55036;DHT22;40936;53.008;6.556;2023-06-14T01:20:44;16.30;99.90
55036;DHT22;40936;53.008;6.556;2023-06-14T01:23:17;16.20;99.90
55036;DHT22;40936;53.008;6.556;2023-06-14T01:25:43;16.20;99.90
55036;DHT22;40936;53.008;6.556;2023-06-14T01:28:11;16.20;99.90
55036;DHT22;40936;53.008;6.556;2023-06-14T01:30:40;16.20;99.90
55036;DHT22;40936;53.008;6.556;2023-06-14T01:33:26;16.10;99.90
55036;DHT22;40936;53.008;6.556;2023-06-14T01:35:53;16.10;99.90
55036;DHT22;40936;53.008;6.556;2023-06-14T01:38:23;16.10;99.90
55036;DHT22;40936;53.008;6.556;2023-06-14T01:40:50;16.00;99.90
55036;DHT22;40936;53.008;6.556;2023-06-14T01:43:18;16.00;99.90
55036;DHT22;40936;53.008;6.556;2023-06-14T01:45:47;16.00;99.90
55036;DHT22;40936;53.008;6.556;2023-06-14T01:48:14;15.90;99.90
55036;DHT22;40936;53.008;6.556;2023-06-14T01:50:41;15.90;99.90
55036;DHT22;40936;53.008;6.556;2023-06-14T01:53:10;15.90;99.90
55036;DHT22;40936;53.008;6.556;2023-06-14T01:55:36;15.90;99.90
55036;DHT22;40936;53.008;6.556;2023-06-14T01:58:09;15.80;99.90
55036;DHT22;40936;53.008;6.556;2023-06-14T02:00:35;15.80;99.90
55036;DHT22;40936;53.008;6.556;2023-06-14T02:03:01;15.80;99.90
55036;DHT22;40936;53.008;6.556;2023-06-14T02:05:27;15.80;99.90
55036;DHT22;40936;53.008;6.556;2023-06-14T02:07:53;15.70;99.90
55036;DHT22;40936;53.008;6.556;2023-06-14T02:10:19;15.80;99.90
55036;DHT22;40936;53.008;6.556;2023-06-14T02:12:45;15.70;99.90
55036;DHT22;40936;53.008;6.556;2023-06-14T02:15:11;15.70;99.90
55036;DHT22;40936;53.008;6.556;2023-06-14T02:17:46;15.70;99.90
55036;DHT22;40936;53.008;6.556;2023-06-14T02:20:13;15.70;99.90
55036;DHT22;40936;53.008;6.556;2023-06-14T02:22:39;15.70;99.90
55036;DHT22;40936;53.008;6.556;2023-06-14T02:25:05;15.70;99.90
55036;DHT22;40936;53.008;6.556;2023-06-14T02:27:32;15.60;99.90
55036;DHT22;40936;53.008;6.556;2023-06-14T02:29:57;15.60;99.90
55036;DHT22;40936;53.008;6.556;2023-06-14T02:32:23;15.60;99.90
55036;DHT22;40936;53.008;6.556;2023-06-14T02:34:49;15.50;99.90
55036;DHT22;40936;53.008;6.556;2023-06-14T02:37:15;15.50;99.90
55036;DHT22;40936;53.008;6.556;2023-06-14T02:39:41;15.50;99.90
55036;DHT22;40936;53.008;6.556;2023-06-14T02:42:07;15.50;99.90
55036;DHT22;40936;53.008;6.556;2023-06-14T02:44:33;15.50;99.90
55036;DHT22;40936;53.008;6.556;2023-06-14T02:46:58;15.50;99.90
55036;DHT22;40936;53.008;6.556;2023-06-14T02:49:26;15.40;99.90
55036;DHT22;40936;53.008;6.556;2023-06-14T02:51:51;15.40;99.90
55036;DHT22;40936;53.008;6.556;2023-06-14T02:54:17;15.40;99.90
55036;DHT22;40936;53.008;6.556;2023-06-14T02:56:43;15.40;99.90
55036;DHT22;40936;53.008;6.556;2023-06-14T02:59:09;15.40;99.90
55036;DHT22;40936;53.008;6.556;2023-06-14T03:01:35;15.30;99.90
55036;DHT22;40936;53.008;6.556;2023-06-14T03:04:01;15.30;99.90
55036;DHT22;40936;53.008;6.556;2023-06-14T03:06:29;15.30;99.90
55036;DHT22;40936;53.008;6.556;2023-06-14T03:08:59;15.30;99.90
55036;DHT22;40936;53.008;6.556;2023-06-14T03:11:28;15.30;99.90
55036;DHT22;40936;53.008;6.556;2023-06-14T03:13:54;15.30;99.90
55036;DHT22;40936;53.008;6.556;2023-06-14T03:16:22;15.20;99.90
55036;DHT22;40936;53.008;6.556;2023-06-14T03:18:52;15.20;99.90
55036;DHT22;40936;53.008;6.556;2023-06-14T03:21:18;15.30;99.90
55036;DHT22;40936;53.008;6.556;2023-06-14T03:23:46;15.30;99.90
55036;DHT22;40936;53.008;6.556;2023-06-14T03:26:12;15.20;99.90
55036;DHT22;40936;53.008;6.556;2023-06-14T03:28:39;15.20;99.90
55036;DHT22;40936;53.008;6.556;2023-06-14T03:31:05;15.20;99.90
55036;DHT22;40936;53.008;6.556;2023-06-14T03:33:32;15.20;99.90
55036;DHT22;40936;53.008;6.556;2023-06-14T03:35:57;15.20;99.90
55036;DHT22;40936;53.008;6.556;2023-06-14T03:38:23;15.20;99.90
55036;DHT22;40936;53.008;6.556;2023-06-14T03:40:49;15.10;99.90
55036;DHT22;40936;53.008;6.556;2023-06-14T03:43:15;15.10;99.90
55036;DHT22;40936;53.008;6.556;2023-06-14T03:45:40;15.10;99.90
55036;DHT22;40936;53.008;6.556;2023-06-14T03:48:06;15.10;99.90
55036;DHT22;40936;53.008;6.556;2023-06-14T03:50:34;15.10;99.90
55036;DHT22;40936;53.008;6.556;2023-06-14T03:53:00;15.10;99.90
55036;DHT22;40936;53.008;6.556;2023-06-14T03:55:26;15.10;99.90
55036;DHT22;40936;53.008;6.556;2023-06-14T03:57:53;15.10;99.90
55036;DHT22;40936;53.008;6.556;2023-06-14T04:00:19;15.10;99.90
55036;DHT22;40936;53.008;6.556;2023-06-14T04:02:45;15.10;99.90
55036;DHT22;40936;53.008;6.556;2023-06-14T04:05:10;15.10;99.90
55036;DHT22;40936;53.008;6.556;2023-06-14T04:07:36;15.10;99.90
55036;DHT22;40936;53.008;6.556;2023-06-14T04:10:08;15.10;99.90
55036;DHT22;40936;53.008;6.556;2023-06-14T04:12:34;15.10;99.90
55036;DHT22;40936;53.008;6.556;2023-06-14T04:14:59;15.10;99.90
55036;DHT22;40936;53.008;6.556;2023-06-14T04:17:26;15.10;99.90
55036;DHT22;40936;53.008;6.556;2023-06-14T04:19:52;15.10;99.90
55036;DHT22;40936;53.008;6.556;2023-06-14T04:22:17;15.10;99.90
55036;DHT22;40936;53.008;6.556;2023-06-14T04:24:43;15.20;99.90
55036;DHT22;40936;53.008;6.556;2023-06-14T04:27:10;15.10;99.90
55036;DHT22;40936;53.008;6.556;2023-06-14T04:29:36;15.10;99.90
55036;DHT22;40936;53.008;6.556;2023-06-14T04:32:02;15.10;99.90
55036;DHT22;40936;53.008;6.556;2023-06-14T04:34:28;15.20;99.90
55036;DHT22;40936;53.008;6.556;2023-06-14T04:36:59;15.20;99.90
55036;DHT22;40936;53.008;6.556;2023-06-14T04:39:26;15.20;99.90
55036;DHT22;40936;53.008;6.556;2023-06-14T04:41:53;15.20;99.90
55036;DHT22;40936;53.008;6.556;2023-06-14T04:44:25;15.20;99.90
55036;DHT22;40936;53.008;6.556;2023-06-14T04:46:58;15.20;99.90
55036;DHT22;40936;53.008;6.556;2023-06-14T04:49:24;15.20;99.90
55036;DHT22;40936;53.008;6.556;2023-06-14T04:51:52;15.30;99.90
55036;DHT22;40936;53.008;6.556;2023-06-14T04:54:23;15.30;99.90
55036;DHT22;40936;53.008;6.556;2023-06-14T04:56:51;15.30;99.90
55036;DHT22;40936;53.008;6.556;2023-06-14T04:59:18;15.30;99.90
55036;DHT22;40936;53.008;6.556;2023-06-14T05:01:44;15.30;99.90
55036;DHT22;40936;53.008;6.556;2023-06-14T05:04:17;15.20;99.90
55036;DHT22;40936;53.008;6.556;2023-06-14T05:06:43;15.30;99.90
55036;DHT22;40936;53.008;6.556;2023-06-14T05:09:15;15.30;99.90
55036;DHT22;40936;53.008;6.556;2023-06-14T05:11:42;15.40;99.90
55036;DHT22;40936;53.008;6.556;2023-06-14T05:14:13;15.40;99.90
55036;DHT22;40936;53.008;6.556;2023-06-14T05:16:39;15.40;99.90
55036;DHT22;40936;53.008;6.556;2023-06-14T05:19:05;15.40;99.90
55036;DHT22;40936;53.008;6.556;2023-06-14T05:21:32;15.40;99.90
55036;DHT22;40936;53.008;6.556;2023-06-14T05:23:59;15.50;99.90
55036;DHT22;40936;53.008;6.556;2023-06-14T05:26:25;15.50;99.90
55036;DHT22;40936;53.008;6.556;2023-06-14T05:28:55;15.60;99.90
55036;DHT22;40936;53.008;6.556;2023-06-14T05:31:22;15.60;99.90
55036;DHT22;40936;53.008;6.556;2023-06-14T05:33:49;15.60;99.90
55036;DHT22;40936;53.008;6.556;2023-06-14T05:36:15;15.70;99.90
55036;DHT22;40936;53.008;6.556;2023-06-14T05:38:41;15.80;99.90
55036;DHT22;40936;53.008;6.556;2023-06-14T05:41:07;15.80;99.90
55036;DHT22;40936;53.008;6.556;2023-06-14T05:43:32;15.70;99.90
55036;DHT22;40936;53.008;6.556;2023-06-14T05:45:58;15.80;99.90
55036;DHT22;40936;53.008;6.556;2023-06-14T05:48:24;15.80;99.90
55036;DHT22;40936;53.008;6.556;2023-06-14T05:50:49;15.90;99.90
55036;DHT22;40936;53.008;6.556;2023-06-14T05:53:15;16.00;99.90
55036;DHT22;40936;53.008;6.556;2023-06-14T05:55:41;16.10;99.90
55036;DHT22;40936;53.008;6.556;2023-06-14T05:58:07;16.10;99.90
55036;DHT22;40936;53.008;6.556;2023-06-14T06:00:32;16.20;99.90
55036;DHT22;40936;53.008;6.556;2023-06-14T06:02:58;16.20;99.90
55036;DHT22;40936;53.008;6.556;2023-06-14T06:05:24;16.30;99.90
55036;DHT22;40936;53.008;6.556;2023-06-14T06:07:50;16.40;99.90
55036;DHT22;40936;53.008;6.556;2023-06-14T06:10:16;16.50;99.90
55036;DHT22;40936;53.008;6.556;2023-06-14T06:12:42;16.60;99.90
55036;DHT22;40936;53.008;6.556;2023-06-14T06:15:08;16.60;99.90
55036;DHT22;40936;53.008;6.556;2023-06-14T06:17:37;16.70;99.90
55036;DHT22;40936;53.008;6.556;2023-06-14T06:20:04;16.80;99.90
55036;DHT22;40936;53.008;6.556;2023-06-14T06:22:31;16.90;99.90
55036;DHT22;40936;53.008;6.556;2023-06-14T06:24:57;17.00;99.90
55036;DHT22;40936;53.008;6.556;2023-06-14T06:27:22;17.10;99.90
55036;DHT22;40936;53.008;6.556;2023-06-14T06:29:48;17.20;99.90
55036;DHT22;40936;53.008;6.556;2023-06-14T06:32:15;17.40;99.90
55036;DHT22;40936;53.008;6.556;2023-06-14T06:34:41;17.40;99.90
55036;DHT22;40936;53.008;6.556;2023-06-14T06:37:06;17.50;99.90
55036;DHT22;40936;53.008;6.556;2023-06-14T06:39:33;17.70;99.90
55036;DHT22;40936;53.008;6.556;2023-06-14T06:41:58;17.80;99.90
55036;DHT22;40936;53.008;6.556;2023-06-14T06:44:24;17.90;99.90
55036;DHT22;40936;53.008;6.556;2023-06-14T06:46:50;18.00;99.90
55036;DHT22;40936;53.008;6.556;2023-06-14T06:49:15;18.10;99.90
55036;DHT22;40936;53.008;6.556;2023-06-14T06:51:42;18.20;99.90
55036;DHT22;40936;53.008;6.556;2023-06-14T06:54:11;18.40;99.90
55036;DHT22;40936;53.008;6.556;2023-06-14T06:56:36;18.50;99.90
55036;DHT22;40936;53.008;6.556;2023-06-14T06:59:02;18.60;99.90
55036;DHT22;40936;53.008;6.556;2023-06-14T07:01:28;18.70;99.90
55036;DHT22;40936;53.008;6.556;2023-06-14T07:03:57;18.80;99.90
55036;DHT22;40936;53.008;6.556;2023-06-14T07:06:23;18.90;99.90
55036;DHT22;40936;53.008;6.556;2023-06-14T07:08:52;19.00;99.90
55036;DHT22;40936;53.008;6.556;2023-06-14T07:11:18;19.20;99.90
55036;DHT22;40936;53.008;6.556;2023-06-14T07:13:43;19.40;99.90
55036;DHT22;40936;53.008;6.556;2023-06-14T07:16:12;19.60;99.90
55036;DHT22;40936;53.008;6.556;2023-06-14T07:18:38;19.90;99.90
55036;DHT22;40936;53.008;6.556;2023-06-14T07:21:04;20.10;99.90
55036;DHT22;40936;53.008;6.556;2023-06-14T07:23:30;20.30;99.90
55036;DHT22;40936;53.008;6.556;2023-06-14T07:25:55;20.50;99.90
55036;DHT22;40936;53.008;6.556;2023-06-14T07:28:21;20.80;99.90
55036;DHT22;40936;53.008;6.556;2023-06-14T07:30:47;21.00;99.90
55036;DHT22;40936;53.008;6.556;2023-06-14T07:33:13;21.20;99.90
55036;DHT22;40936;53.008;6.556;2023-06-14T07:35:39;21.40;99.90
55036;DHT22;40936;53.008;6.556;2023-06-14T07:38:05;21.60;99.90
55036;DHT22;40936;53.008;6.556;2023-06-14T07:40:31;21.80;99.90
55036;DHT22;40936;53.008;6.556;2023-06-14T07:42:57;22.00;99.90
55036;DHT22;40936;53.008;6.556;2023-06-14T07:45:23;22.00;99.90
55036;DHT22;40936;53.008;6.556;2023-06-14T07:47:48;22.20;99.90
55036;DHT22;40936;53.008;6.556;2023-06-14T07:50:14;22.50;99.90
55036;DHT22;40936;53.008;6.556;2023-06-14T07:52:40;22.50;99.90
55036;DHT22;40936;53.008;6.556;2023-06-14T07:55:06;22.60;99.90
55036;DHT22;40936;53.008;6.556;2023-06-14T07:57:32;22.70;99.90
55036;DHT22;40936;53.008;6.556;2023-06-14T07:59:57;22.70;99.90
55036;DHT22;40936;53.008;6.556;2023-06-14T08:02:23;22.80;99.90
55036;DHT22;40936;53.008;6.556;2023-06-14T08:04:49;23.00;99.90
55036;DHT22;40936;53.008;6.556;2023-06-14T08:07:15;23.30;99.90
55036;DHT22;40936;53.008;6.556;2023-06-14T08:09:41;23.50;99.90
55036;DHT22;40936;53.008;6.556;2023-06-14T08:12:07;23.50;99.90
55036;DHT22;40936;53.008;6.556;2023-06-14T08:14:35;23.40;99.90
55036;DHT22;40936;53.008;6.556;2023-06-14T08:17:01;23.50;99.90
55036;DHT22;40936;53.008;6.556;2023-06-14T08:19:27;23.60;99.90
55036;DHT22;40936;53.008;6.556;2023-06-14T08:21:52;23.80;99.90
55036;DHT22;40936;53.008;6.556;2023-06-14T08:24:21;24.10;99.90
55036;DHT22;40936;53.008;6.556;2023-06-14T08:26:50;24.10;99.90
55036;DHT22;40936;53.008;6.556;2023-06-14T08:29:16;24.30;99.90
55036;DHT22;40936;53.008;6.556;2023-06-14T08:31:41;24.30;99.90
55036;DHT22;40936;53.008;6.556;2023-06-14T08:34:07;24.40;99.90
55036;DHT22;40936;53.008;6.556;2023-06-14T08:36:33;24.60;99.90
55036;DHT22;40936;53.008;6.556;2023-06-14T08:39:00;24.60;99.90
55036;DHT22;40936;53.008;6.556;2023-06-14T08:41:25;24.80;99.90
55036;DHT22;40936;53.008;6.556;2023-06-14T08:43:55;24.90;99.90
55036;DHT22;40936;53.008;6.556;2023-06-14T08:46:21;24.90;99.90
55036;DHT22;40936;53.008;6.556;2023-06-14T08:48:51;25.00;99.90
55036;DHT22;40936;53.008;6.556;2023-06-14T08:51:22;25.00;99.90
55036;DHT22;40936;53.008;6.556;2023-06-14T08:53:54;25.10;99.90
55036;DHT22;40936;53.008;6.556;2023-06-14T08:56:26;25.20;99.90
55036;DHT22;40936;53.008;6.556;2023-06-14T08:58:53;25.30;99.90
55036;DHT22;40936;53.008;6.556;2023-06-14T09:01:20;25.30;99.90
55036;DHT22;40936;53.008;6.556;2023-06-14T09:03:48;25.50;99.90
55036;DHT22;40936;53.008;6.556;2023-06-14T09:06:14;25.60;99.90
55036;DHT22;40936;53.008;6.556;2023-06-14T09:08:46;25.70;99.90
55036;DHT22;40936;53.008;6.556;2023-06-14T09:11:13;25.70;99.90
55036;DHT22;40936;53.008;6.556;2023-06-14T09:13:40;25.90;99.90
55036;DHT22;40936;53.008;6.556;2023-06-14T09:16:07;25.90;99.90
55036;DHT22;40936;53.008;6.556;2023-06-14T09:18:37;26.20;99.90
55036;DHT22;40936;53.008;6.556;2023-06-14T09:21:06;25.90;99.90
55036;DHT22;40936;53.008;6.556;2023-06-14T09:23:46;25.90;99.90
55036;DHT22;40936;53.008;6.556;2023-06-14T09:26:17;26.00;99.90
55036;DHT22;40936;53.008;6.556;2023-06-14T09:28:48;26.00;99.90
55036;DHT22;40936;53.008;6.556;2023-06-14T09:31:16;26.40;99.90
55036;DHT22;40936;53.008;6.556;2023-06-14T09:33:44;26.50;99.90
55036;DHT22;40936;53.008;6.556;2023-06-14T09:36:23;26.80;99.90
55036;DHT22;40936;53.008;6.556;2023-06-14T09:38:56;27.10;99.90
55036;DHT22;40936;53.008;6.556;2023-06-14T09:41:33;27.60;99.90
55036;DHT22;40936;53.008;6.556;2023-06-14T09:44:00;27.50;99.90
55036;DHT22;40936;53.008;6.556;2023-06-14T09:46:28;27.60;99.90
55036;DHT22;40936;53.008;6.556;2023-06-14T09:49:00;27.60;99.90
55036;DHT22;40936;53.008;6.556;2023-06-14T09:51:27;27.80;99.90
55036;DHT22;40936;53.008;6.556;2023-06-14T09:53:58;28.40;99.90
55036;DHT22;40936;53.008;6.556;2023-06-14T09:56:50;28.40;99.90
55036;DHT22;40936;53.008;6.556;2023-06-14T09:59:22;28.30;99.90
55036;DHT22;40936;53.008;6.556;2023-06-14T10:01:57;28.20;99.90
55036;DHT22;40936;53.008;6.556;2023-06-14T10:04:24;28.30;99.90
55036;DHT22;40936;53.008;6.556;2023-06-14T10:06:51;28.70;99.90
55036;DHT22;40936;53.008;6.556;2023-06-14T10:09:18;29.00;99.90
55036;DHT22;40936;53.008;6.556;2023-06-14T10:11:44;29.10;99.90
55036;DHT22;40936;53.008;6.556;2023-06-14T10:14:12;28.90;99.90
55036;DHT22;40936;53.008;6.556;2023-06-14T10:16:45;29.10;99.90
55036;DHT22;40936;53.008;6.556;2023-06-14T10:19:37;29.50;99.90
55036;DHT22;40936;53.008;6.556;2023-06-14T10:22:29;30.00;99.90
55036;DHT22;40936;53.008;6.556;2023-06-14T10:24:56;30.20;99.90
55036;DHT22;40936;53.008;6.556;2023-06-14T10:27:22;30.60;99.90
55036;DHT22;40936;53.008;6.556;2023-06-14T10:32:25;31.10;99.90
55036;DHT22;40936;53.008;6.556;2023-06-14T10:35:00;31.20;99.90
55036;DHT22;40936;53.008;6.556;2023-06-14T10:37:26;31.70;99.90
55036;DHT22;40936;53.008;6.556;2023-06-14T10:39:52;32.00;99.90
55036;DHT22;40936;53.008;6.556;2023-06-14T10:42:19;32.30;99.90
55036;DHT22;40936;53.008;6.556;2023-06-14T10:44:52;32.50;99.90
55036;DHT22;40936;53.008;6.556;2023-06-14T10:47:30;32.90;99.90
55036;DHT22;40936;53.008;6.556;2023-06-14T10:52:28;33.80;99.90
55036;DHT22;40936;53.008;6.556;2023-06-14T10:55:04;33.90;99.90
55036;DHT22;40936;53.008;6.556;2023-06-14T10:57:32;34.00;99.90
55036;DHT22;40936;53.008;6.556;2023-06-14T10:59:58;34.40;99.90
55036;DHT22;40936;53.008;6.556;2023-06-14T11:05:29;35.10;99.90
55036;DHT22;40936;53.008;6.556;2023-06-14T11:10:48;35.90;99.90
55036;DHT22;40936;53.008;6.556;2023-06-14T11:13:16;36.30;99.90
55036;DHT22;40936;53.008;6.556;2023-06-14T11:15:47;36.40;99.90
55036;DHT22;40936;53.008;6.556;2023-06-14T11:18:13;35.80;99.90
55036;DHT22;40936;53.008;6.556;2023-06-14T11:20:40;35.50;99.90
55036;DHT22;40936;53.008;6.556;2023-06-14T11:23:06;35.60;99.90
55036;DHT22;40936;53.008;6.556;2023-06-14T11:25:31;35.60;99.90
55036;DHT22;40936;53.008;6.556;2023-06-14T11:27:58;35.70;99.90
55036;DHT22;40936;53.008;6.556;2023-06-14T11:30:25;36.30;99.90
55036;DHT22;40936;53.008;6.556;2023-06-14T11:32:54;36.80;99.90
55036;DHT22;40936;53.008;6.556;2023-06-14T11:35:22;37.20;99.90
55036;DHT22;40936;53.008;6.556;2023-06-14T11:37:55;37.10;99.90
55036;DHT22;40936;53.008;6.556;2023-06-14T11:40:24;36.50;99.90
55036;DHT22;40936;53.008;6.556;2023-06-14T11:42:58;36.60;99.90
55036;DHT22;40936;53.008;6.556;2023-06-14T11:45:25;37.30;99.90
55036;DHT22;40936;53.008;6.556;2023-06-14T11:47:50;37.50;99.90
55036;DHT22;40936;53.008;6.556;2023-06-14T11:50:16;37.20;99.90
55036;DHT22;40936;53.008;6.556;2023-06-14T11:52:43;37.20;99.90
55036;DHT22;40936;53.008;6.556;2023-06-14T11:55:08;37.50;99.90
55036;DHT22;40936;53.008;6.556;2023-06-14T11:57:35;37.80;99.90
55036;DHT22;40936;53.008;6.556;2023-06-14T12:00:05;38.00;99.90
55036;DHT22;40936;53.008;6.556;2023-06-14T12:02:33;38.30;99.90
55036;DHT22;40936;53.008;6.556;2023-06-14T12:05:04;38.50;99.90
55036;DHT22;40936;53.008;6.556;2023-06-14T12:07:31;38.20;99.90
55036;DHT22;40936;53.008;6.556;2023-06-14T12:12:23;38.00;99.90
55036;DHT22;40936;53.008;6.556;2023-06-14T12:14:51;38.10;99.90
55036;DHT22;40936;53.008;6.556;2023-06-14T12:17:17;38.10;99.90
55036;DHT22;40936;53.008;6.556;2023-06-14T12:19:44;37.90;99.90
55036;DHT22;40936;53.008;6.556;2023-06-14T12:22:12;37.90;99.90
55036;DHT22;40936;53.008;6.556;2023-06-14T12:24:38;38.00;99.90
55036;DHT22;40936;53.008;6.556;2023-06-14T12:27:05;38.20;99.90
55036;DHT22;40936;53.008;6.556;2023-06-14T12:29:31;38.40;99.90
55036;DHT22;40936;53.008;6.556;2023-06-14T12:31:57;38.30;99.90
55036;DHT22;40936;53.008;6.556;2023-06-14T12:34:24;37.60;99.90
55036;DHT22;40936;53.008;6.556;2023-06-14T12:36:53;36.30;99.90
55036;DHT22;40936;53.008;6.556;2023-06-14T12:39:19;34.60;99.90
55036;DHT22;40936;53.008;6.556;2023-06-14T12:41:45;33.10;99.90
55036;DHT22;40936;53.008;6.556;2023-06-14T12:44:11;31.90;99.90
55036;DHT22;40936;53.008;6.556;2023-06-14T12:46:38;31.20;99.90
55036;DHT22;40936;53.008;6.556;2023-06-14T12:49:07;30.70;99.90
55036;DHT22;40936;53.008;6.556;2023-06-14T12:51:33;30.40;99.90
55036;DHT22;40936;53.008;6.556;2023-06-14T12:53:58;30.20;99.90
55036;DHT22;40936;53.008;6.556;2023-06-14T12:56:24;29.90;99.90
55036;DHT22;40936;53.008;6.556;2023-06-14T12:58:50;29.70;99.90
55036;DHT22;40936;53.008;6.556;2023-06-14T13:01:16;29.60;99.90
55036;DHT22;40936;53.008;6.556;2023-06-14T13:03:42;29.60;99.90
55036;DHT22;40936;53.008;6.556;2023-06-14T13:06:07;29.30;99.90
55036;DHT22;40936;53.008;6.556;2023-06-14T13:08:33;29.30;99.90
55036;DHT22;40936;53.008;6.556;2023-06-14T13:10:59;29.10;99.90
55036;DHT22;40936;53.008;6.556;2023-06-14T13:13:24;28.90;99.90
55036;DHT22;40936;53.008;6.556;2023-06-14T13:15:50;28.80;99.90
55036;DHT22;40936;53.008;6.556;2023-06-14T13:18:16;28.50;99.90
55036;DHT22;40936;53.008;6.556;2023-06-14T13:20:42;28.50;99.90
55036;DHT22;40936;53.008;6.556;2023-06-14T13:23:09;28.40;99.90
55036;DHT22;40936;53.008;6.556;2023-06-14T13:25:36;28.30;99.90
55036;DHT22;40936;53.008;6.556;2023-06-14T13:28:03;28.20;99.90
55036;DHT22;40936;53.008;6.556;2023-06-14T13:30:29;28.10;99.90
55036;DHT22;40936;53.008;6.556;2023-06-14T13:32:55;28.10;99.90
55036;DHT22;40936;53.008;6.556;2023-06-14T13:35:21;28.00;99.90
55036;DHT22;40936;53.008;6.556;2023-06-14T13:37:47;28.00;99.90
55036;DHT22;40936;53.008;6.556;2023-06-14T13:40:13;28.00;99.90
55036;DHT22;40936;53.008;6.556;2023-06-14T13:42:39;28.10;99.90
55036;DHT22;40936;53.008;6.556;2023-06-14T13:45:06;28.00;99.90
55036;DHT22;40936;53.008;6.556;2023-06-14T13:47:32;27.90;99.90
55036;DHT22;40936;53.008;6.556;2023-06-14T13:49:58;27.90;99.90
55036;DHT22;40936;53.008;6.556;2023-06-14T13:52:24;28.10;99.90
55036;DHT22;40936;53.008;6.556;2023-06-14T13:54:50;28.20;99.90
55036;DHT22;40936;53.008;6.556;2023-06-14T13:57:16;28.20;99.90
55036;DHT22;40936;53.008;6.556;2023-06-14T13:59:42;28.00;99.90
55036;DHT22;40936;53.008;6.556;2023-06-14T14:02:10;28.00;99.90
55036;DHT22;40936;53.008;6.556;2023-06-14T14:04:37;28.00;99.90
55036;DHT22;40936;53.008;6.556;2023-06-14T14:07:06;27.90;99.90
55036;DHT22;40936;53.008;6.556;2023-06-14T14:09:34;27.80;99.90
55036;DHT22;40936;53.008;6.556;2023-06-14T14:12:01;27.60;99.90
55036;DHT22;40936;53.008;6.556;2023-06-14T14:14:28;27.70;99.90
55036;DHT22;40936;53.008;6.556;2023-06-14T14:16:54;27.80;99.90
55036;DHT22;40936;53.008;6.556;2023-06-14T14:19:23;27.80;99.90
55036;DHT22;40936;53.008;6.556;2023-06-14T14:21:49;27.80;99.90
55036;DHT22;40936;53.008;6.556;2023-06-14T14:24:15;27.70;99.90
55036;DHT22;40936;53.008;6.556;2023-06-14T14:26:42;27.60;99.90
55036;DHT22;40936;53.008;6.556;2023-06-14T14:29:08;27.70;99.90
55036;DHT22;40936;53.008;6.556;2023-06-14T14:31:34;27.90;99.90
55036;DHT22;40936;53.008;6.556;2023-06-14T14:34:00;27.80;99.90
55036;DHT22;40936;53.008;6.556;2023-06-14T14:36:26;27.70;99.90
55036;DHT22;40936;53.008;6.556;2023-06-14T14:38:51;27.50;99.90
55036;DHT22;40936;53.008;6.556;2023-06-14T14:41:17;27.50;99.90
55036;DHT22;40936;53.008;6.556;2023-06-14T14:43:43;27.50;99.90
55036;DHT22;40936;53.008;6.556;2023-06-14T14:46:09;27.50;99.90
55036;DHT22;40936;53.008;6.556;2023-06-14T14:48:35;27.60;99.90
55036;DHT22;40936;53.008;6.556;2023-06-14T14:51:01;27.70;99.90
55036;DHT22;40936;53.008;6.556;2023-06-14T14:53:27;28.10;99.90
55036;DHT22;40936;53.008;6.556;2023-06-14T14:55:53;28.20;99.90
55036;DHT22;40936;53.008;6.556;2023-06-14T14:58:18;28.10;99.90
55036;DHT22;40936;53.008;6.556;2023-06-14T15:00:47;28.00;99.90
55036;DHT22;40936;53.008;6.556;2023-06-14T15:03:14;28.10;99.90
55036;DHT22;40936;53.008;6.556;2023-06-14T15:05:40;28.50;99.90
55036;DHT22;40936;53.008;6.556;2023-06-14T15:08:06;29.00;99.90
55036;DHT22;40936;53.008;6.556;2023-06-14T15:10:41;28.90;99.90
55036;DHT22;40936;53.008;6.556;2023-06-14T15:13:10;29.10;99.90
55036;DHT22;40936;53.008;6.556;2023-06-14T15:15:36;29.10;99.90
55036;DHT22;40936;53.008;6.556;2023-06-14T15:18:03;28.90;99.90
55036;DHT22;40936;53.008;6.556;2023-06-14T15:20:29;29.00;99.90
55036;DHT22;40936;53.008;6.556;2023-06-14T15:22:54;29.40;99.90
55036;DHT22;40936;53.008;6.556;2023-06-14T15:25:27;30.00;99.90
55036;DHT22;40936;53.008;6.556;2023-06-14T15:27:52;30.90;99.90
55036;DHT22;40936;53.008;6.556;2023-06-14T15:30:19;31.40;99.90
55036;DHT22;40936;53.008;6.556;2023-06-14T15:32:44;32.00;99.90
55036;DHT22;40936;53.008;6.556;2023-06-14T15:35:10;31.80;99.90
55036;DHT22;40936;53.008;6.556;2023-06-14T15:37:37;31.80;99.90
55036;DHT22;40936;53.008;6.556;2023-06-14T15:40:04;31.90;99.90
55036;DHT22;40936;53.008;6.556;2023-06-14T15:42:30;32.00;99.90
55036;DHT22;40936;53.008;6.556;2023-06-14T15:44:55;31.90;99.90
55036;DHT22;40936;53.008;6.556;2023-06-14T15:47:21;31.40;99.90